sensor_id;sensor_type;location;lat;lon;timestamp;P1;durP1;ratioP1;P2;durP2;ratioP2
62332;SDS011;48624;49.812;8.562;2022-07-19T00:00:41;7.43;;;3.08;;
62332;SDS011;48624;49.812;8.562;2022-07-19T00:03:11;3.33;;;2.55;;
62332;SDS011;48624;49.812;8.562;2022-07-19T00:05:37;4.13;;;2.70;;
62332;SDS011;48624;49.812;8.562;2022-07-19T00:08:02;5.70;;;3.85;;
62332;SDS011;48624;49.812;8.562;2022-07-19T00:10:28;7.13;;;3.30;;
62332;SDS011;48624;49.812;8.562;2022-07-19T00:12:53;6.43;;;3.25;;
62332;SDS011;48624;49.812;8.562;2022-07-19T00:15:19;10.32;;;3.58;;
62332;SDS011;48624;49.812;8.562;2022-07-19T00:17:45;5.75;;;3.15;;
62332;SDS011;48624;49.812;8.562;2022-07-19T00:20:13;5.55;;;3.38;;
62332;SDS011;48624;49.812;8.562;2022-07-19T00:22:40;4.72;;;2.72;;
62332;SDS011;48624;49.812;8.562;2022-07-19T00:25:06;5.10;;;2.83;;
62332;SDS011;48624;49.812;8.562;2022-07-19T00:27:32;5.50;;;2.65;;
62332;SDS011;48624;49.812;8.562;2022-07-19T00:29:58;6.60;;;3.13;;
62332;SDS011;48624;49.812;8.562;2022-07-19T00:32:23;9.60;;;3.30;;
62332;SDS011;48624;49.812;8.562;2022-07-19T00:34:49;8.57;;;4.28;;
62332;SDS011;48624;49.812;8.562;2022-07-19T00:37:14;5.97;;;3.10;;
62332;SDS011;48624;49.812;8.562;2022-07-19T00:39:40;6.25;;;2.95;;
62332;SDS011;48624;49.812;8.562;2022-07-19T00:42:06;6.82;;;3.28;;
62332;SDS011;48624;49.812;8.562;2022-07-19T00:44:32;4.93;;;3.30;;
62332;SDS011;48624;49.812;8.562;2022-07-19T00:46:57;6.80;;;4.20;;
62332;SDS011;48624;49.812;8.562;2022-07-19T00:49:23;5.97;;;3.33;;
62332;SDS011;48624;49.812;8.562;2022-07-19T00:51:50;5.18;;;3.45;;
62332;SDS011;48624;49.812;8.562;2022-07-19T00:54:19;5.38;;;3.28;;
62332;SDS011;48624;49.812;8.562;2022-07-19T00:56:47;6.43;;;3.70;;
62332;SDS011;48624;49.812;8.562;2022-07-19T00:59:14;6.32;;;3.35;;
62332;SDS011;48624;49.812;8.562;2022-07-19T01:01:39;9.10;;;4.22;;
62332;SDS011;48624;49.812;8.562;2022-07-19T01:04:05;8.88;;;3.40;;
62332;SDS011;48624;49.812;8.562;2022-07-19T01:06:31;8.70;;;4.85;;
62332;SDS011;48624;49.812;8.562;2022-07-19T01:08:56;7.22;;;4.25;;
62332;SDS011;48624;49.812;8.562;2022-07-19T01:11:22;6.65;;;3.35;;
62332;SDS011;48624;49.812;8.562;2022-07-19T01:13:48;8.52;;;3.42;;
62332;SDS011;48624;49.812;8.562;2022-07-19T01:16:14;6.95;;;3.78;;
62332;SDS011;48624;49.812;8.562;2022-07-19T01:18:39;6.43;;;3.58;;
62332;SDS011;48624;49.812;8.562;2022-07-19T01:21:05;7.60;;;3.90;;
62332;SDS011;48624;49.812;8.562;2022-07-19T01:23:32;6.88;;;3.45;;
62332;SDS011;48624;49.812;8.562;2022-07-19T01:25:58;6.55;;;3.70;;
62332;SDS011;48624;49.812;8.562;2022-07-19T01:28:23;7.55;;;4.22;;
62332;SDS011;48624;49.812;8.562;2022-07-19T01:30:48;11.63;;;4.28;;
62332;SDS011;48624;49.812;8.562;2022-07-19T01:33:15;10.35;;;4.32;;
62332;SDS011;48624;49.812;8.562;2022-07-19T01:35:41;9.32;;;3.90;;
62332;SDS011;48624;49.812;8.562;2022-07-19T01:38:07;8.40;;;3.85;;
62332;SDS011;48624;49.812;8.562;2022-07-19T01:40:32;5.72;;;3.70;;
62332;SDS011;48624;49.812;8.562;2022-07-19T01:42:58;8.57;;;4.10;;
62332;SDS011;48624;49.812;8.562;2022-07-19T01:45:24;13.55;;;4.20;;
62332;SDS011;48624;49.812;8.562;2022-07-19T01:47:49;7.85;;;3.97;;
62332;SDS011;48624;49.812;8.562;2022-07-19T01:50:15;9.60;;;3.88;;
62332;SDS011;48624;49.812;8.562;2022-07-19T01:52:42;9.80;;;4.18;;
62332;SDS011;48624;49.812;8.562;2022-07-19T01:55:08;8.50;;;4.15;;
62332;SDS011;48624;49.812;8.562;2022-07-19T01:57:34;5.30;;;4.00;;
62332;SDS011;48624;49.812;8.562;2022-07-19T01:59:59;7.90;;;4.10;;
62332;SDS011;48624;49.812;8.562;2022-07-19T02:02:25;6.60;;;3.75;;
62332;SDS011;48624;49.812;8.562;2022-07-19T02:04:50;12.27;;;4.50;;
62332;SDS011;48624;49.812;8.562;2022-07-19T02:07:16;6.25;;;3.95;;
62332;SDS011;48624;49.812;8.562;2022-07-19T02:09:41;5.68;;;3.63;;
62332;SDS011;48624;49.812;8.562;2022-07-19T02:12:07;6.65;;;4.03;;
62332;SDS011;48624;49.812;8.562;2022-07-19T02:14:32;8.10;;;4.07;;
62332;SDS011;48624;49.812;8.562;2022-07-19T02:16:57;10.23;;;4.25;;
62332;SDS011;48624;49.812;8.562;2022-07-19T02:19:22;7.53;;;4.40;;
62332;SDS011;48624;49.812;8.562;2022-07-19T02:21:48;6.43;;;3.92;;
62332;SDS011;48624;49.812;8.562;2022-07-19T02:24:13;9.70;;;3.90;;
62332;SDS011;48624;49.812;8.562;2022-07-19T02:26:39;6.65;;;4.28;;
62332;SDS011;48624;49.812;8.562;2022-07-19T02:29:04;8.20;;;4.63;;
62332;SDS011;48624;49.812;8.562;2022-07-19T02:31:30;8.80;;;5.10;;
62332;SDS011;48624;49.812;8.562;2022-07-19T02:33:55;10.57;;;4.32;;
62332;SDS011;48624;49.812;8.562;2022-07-19T02:36:20;13.95;;;5.03;;
62332;SDS011;48624;49.812;8.562;2022-07-19T02:38:46;8.05;;;4.50;;
62332;SDS011;48624;49.812;8.562;2022-07-19T02:41:11;10.75;;;4.90;;
62332;SDS011;48624;49.812;8.562;2022-07-19T02:43:38;10.93;;;5.00;;
62332;SDS011;48624;49.812;8.562;2022-07-19T02:46:04;6.47;;;4.60;;
62332;SDS011;48624;49.812;8.562;2022-07-19T02:48:29;6.28;;;4.25;;
62332;SDS011;48624;49.812;8.562;2022-07-19T02:50:55;9.73;;;4.45;;
62332;SDS011;48624;49.812;8.562;2022-07-19T02:53:20;9.45;;;5.03;;
62332;SDS011;48624;49.812;8.562;2022-07-19T02:55:45;7.07;;;4.80;;
62332;SDS011;48624;49.812;8.562;2022-07-19T02:58:11;7.13;;;4.93;;
62332;SDS011;48624;49.812;8.562;2022-07-19T03:00:36;8.38;;;4.45;;
62332;SDS011;48624;49.812;8.562;2022-07-19T03:03:01;7.38;;;4.60;;
62332;SDS011;48624;49.812;8.562;2022-07-19T03:05:46;12.98;;;4.80;;
62332;SDS011;48624;49.812;8.562;2022-07-19T03:08:11;8.85;;;4.57;;
62332;SDS011;48624;49.812;8.562;2022-07-19T03:10:37;9.60;;;4.45;;
62332;SDS011;48624;49.812;8.562;2022-07-19T03:13:03;8.45;;;4.93;;
62332;SDS011;48624;49.812;8.562;2022-07-19T03:15:28;11.68;;;5.00;;
62332;SDS011;48624;49.812;8.562;2022-07-19T03:17:54;6.55;;;4.25;;
62332;SDS011;48624;49.812;8.562;2022-07-19T03:20:19;7.20;;;5.38;;
62332;SDS011;48624;49.812;8.562;2022-07-19T03:22:44;8.38;;;4.72;;
62332;SDS011;48624;49.812;8.562;2022-07-19T03:25:10;5.85;;;4.22;;
62332;SDS011;48624;49.812;8.562;2022-07-19T03:27:35;6.32;;;4.97;;
62332;SDS011;48624;49.812;8.562;2022-07-19T03:30:00;8.45;;;5.25;;
62332;SDS011;48624;49.812;8.562;2022-07-19T03:32:26;8.07;;;4.97;;
62332;SDS011;48624;49.812;8.562;2022-07-19T03:34:51;8.30;;;4.75;;
62332;SDS011;48624;49.812;8.562;2022-07-19T03:37:17;6.93;;;5.15;;
62332;SDS011;48624;49.812;8.562;2022-07-19T03:39:42;9.75;;;6.03;;
62332;SDS011;48624;49.812;8.562;2022-07-19T03:42:07;8.13;;;5.20;;
62332;SDS011;48624;49.812;8.562;2022-07-19T03:44:33;10.30;;;5.97;;
62332;SDS011;48624;49.812;8.562;2022-07-19T03:46:58;7.65;;;5.70;;
62332;SDS011;48624;49.812;8.562;2022-07-19T03:49:23;8.15;;;5.47;;
62332;SDS011;48624;49.812;8.562;2022-07-19T03:51:49;8.15;;;4.97;;
62332;SDS011;48624;49.812;8.562;2022-07-19T03:54:14;7.35;;;5.43;;
62332;SDS011;48624;49.812;8.562;2022-07-19T03:56:39;9.35;;;5.30;;
62332;SDS011;48624;49.812;8.562;2022-07-19T03:59:05;7.95;;;5.80;;
62332;SDS011;48624;49.812;8.562;2022-07-19T04:01:30;9.35;;;5.18;;
62332;SDS011;48624;49.812;8.562;2022-07-19T04:03:55;9.35;;;5.43;;
62332;SDS011;48624;49.812;8.562;2022-07-19T04:06:20;7.60;;;5.57;;
62332;SDS011;48624;49.812;8.562;2022-07-19T04:08:46;5.78;;;4.50;;
62332;SDS011;48624;49.812;8.562;2022-07-19T04:11:11;8.07;;;4.65;;
62332;SDS011;48624;49.812;8.562;2022-07-19T04:13:36;8.07;;;4.50;;
62332;SDS011;48624;49.812;8.562;2022-07-19T04:16:02;7.13;;;4.65;;
62332;SDS011;48624;49.812;8.562;2022-07-19T04:18:28;8.80;;;4.60;;
62332;SDS011;48624;49.812;8.562;2022-07-19T04:20:53;5.80;;;4.03;;
62332;SDS011;48624;49.812;8.562;2022-07-19T04:23:19;9.32;;;4.60;;
62332;SDS011;48624;49.812;8.562;2022-07-19T04:25:44;10.63;;;4.30;;
62332;SDS011;48624;49.812;8.562;2022-07-19T04:28:09;9.23;;;4.00;;
62332;SDS011;48624;49.812;8.562;2022-07-19T04:30:35;11.52;;;4.57;;
62332;SDS011;48624;49.812;8.562;2022-07-19T04:33:00;9.00;;;4.80;;
62332;SDS011;48624;49.812;8.562;2022-07-19T04:35:25;8.85;;;4.47;;
62332;SDS011;48624;49.812;8.562;2022-07-19T04:37:51;5.95;;;4.05;;
62332;SDS011;48624;49.812;8.562;2022-07-19T04:40:16;6.40;;;4.43;;
62332;SDS011;48624;49.812;8.562;2022-07-19T04:42:42;11.63;;;4.95;;
62332;SDS011;48624;49.812;8.562;2022-07-19T04:45:07;9.05;;;4.70;;
62332;SDS011;48624;49.812;8.562;2022-07-19T04:47:33;11.00;;;4.88;;
62332;SDS011;48624;49.812;8.562;2022-07-19T04:49:58;10.85;;;4.78;;
62332;SDS011;48624;49.812;8.562;2022-07-19T04:52:23;8.48;;;4.90;;
62332;SDS011;48624;49.812;8.562;2022-07-19T04:54:49;7.80;;;5.10;;
62332;SDS011;48624;49.812;8.562;2022-07-19T04:57:14;5.03;;;4.55;;
62332;SDS011;48624;49.812;8.562;2022-07-19T04:59:40;8.82;;;4.43;;
62332;SDS011;48624;49.812;8.562;2022-07-19T05:02:06;7.55;;;4.80;;
62332;SDS011;48624;49.812;8.562;2022-07-19T05:04:31;8.60;;;5.35;;
62332;SDS011;48624;49.812;8.562;2022-07-19T05:06:57;17.33;;;4.93;;
62332;SDS011;48624;49.812;8.562;2022-07-19T05:09:23;12.02;;;5.00;;
62332;SDS011;48624;49.812;8.562;2022-07-19T05:11:50;8.10;;;5.60;;
62332;SDS011;48624;49.812;8.562;2022-07-19T05:14:17;15.65;;;5.50;;
62332;SDS011;48624;49.812;8.562;2022-07-19T05:16:43;9.88;;;5.63;;
62332;SDS011;48624;49.812;8.562;2022-07-19T05:19:08;7.85;;;5.07;;
62332;SDS011;48624;49.812;8.562;2022-07-19T05:21:34;11.27;;;5.43;;
62332;SDS011;48624;49.812;8.562;2022-07-19T05:23:59;10.10;;;4.78;;
62332;SDS011;48624;49.812;8.562;2022-07-19T05:26:25;14.10;;;5.82;;
62332;SDS011;48624;49.812;8.562;2022-07-19T05:28:50;8.77;;;5.70;;
62332;SDS011;48624;49.812;8.562;2022-07-19T05:31:15;11.43;;;6.22;;
62332;SDS011;48624;49.812;8.562;2022-07-19T05:33:41;11.40;;;6.15;;
62332;SDS011;48624;49.812;8.562;2022-07-19T05:36:07;13.07;;;6.00;;
62332;SDS011;48624;49.812;8.562;2022-07-19T05:38:37;8.43;;;4.80;;
62332;SDS011;48624;49.812;8.562;2022-07-19T05:41:03;13.15;;;4.30;;
62332;SDS011;48624;49.812;8.562;2022-07-19T05:43:29;11.50;;;4.93;;
62332;SDS011;48624;49.812;8.562;2022-07-19T05:45:55;20.50;;;5.70;;
62332;SDS011;48624;49.812;8.562;2022-07-19T05:48:20;9.60;;;4.53;;
62332;SDS011;48624;49.812;8.562;2022-07-19T05:50:45;7.50;;;4.55;;
62332;SDS011;48624;49.812;8.562;2022-07-19T05:53:11;7.03;;;4.55;;
62332;SDS011;48624;49.812;8.562;2022-07-19T05:55:37;7.57;;;4.50;;
62332;SDS011;48624;49.812;8.562;2022-07-19T05:58:02;8.77;;;4.60;;
62332;SDS011;48624;49.812;8.562;2022-07-19T06:00:28;9.05;;;4.40;;
62332;SDS011;48624;49.812;8.562;2022-07-19T06:02:53;11.68;;;4.60;;
62332;SDS011;48624;49.812;8.562;2022-07-19T06:05:19;11.60;;;4.82;;
62332;SDS011;48624;49.812;8.562;2022-07-19T06:07:44;7.43;;;4.43;;
62332;SDS011;48624;49.812;8.562;2022-07-19T06:10:09;6.00;;;4.20;;
62332;SDS011;48624;49.812;8.562;2022-07-19T06:12:34;4.75;;;3.80;;
62332;SDS011;48624;49.812;8.562;2022-07-19T06:15:00;7.13;;;3.47;;
62332;SDS011;48624;49.812;8.562;2022-07-19T06:17:25;5.93;;;4.07;;
62332;SDS011;48624;49.812;8.562;2022-07-19T06:19:51;10.23;;;4.53;;
62332;SDS011;48624;49.812;8.562;2022-07-19T06:22:16;7.40;;;4.30;;
62332;SDS011;48624;49.812;8.562;2022-07-19T06:24:41;11.57;;;5.05;;
62332;SDS011;48624;49.812;8.562;2022-07-19T06:27:07;4.32;;;3.75;;
62332;SDS011;48624;49.812;8.562;2022-07-19T06:29:32;14.43;;;4.40;;
62332;SDS011;48624;49.812;8.562;2022-07-19T06:31:57;7.15;;;4.20;;
62332;SDS011;48624;49.812;8.562;2022-07-19T06:34:23;4.82;;;3.75;;
62332;SDS011;48624;49.812;8.562;2022-07-19T06:36:48;8.80;;;4.57;;
62332;SDS011;48624;49.812;8.562;2022-07-19T06:39:13;4.68;;;3.80;;
62332;SDS011;48624;49.812;8.562;2022-07-19T06:41:39;5.05;;;3.90;;
62332;SDS011;48624;49.812;8.562;2022-07-19T06:44:04;8.38;;;4.50;;
62332;SDS011;48624;49.812;8.562;2022-07-19T06:46:29;8.80;;;4.50;;
62332;SDS011;48624;49.812;8.562;2022-07-19T06:48:55;9.00;;;3.88;;
62332;SDS011;48624;49.812;8.562;2022-07-19T06:51:20;11.20;;;4.03;;
62332;SDS011;48624;49.812;8.562;2022-07-19T06:53:45;9.38;;;4.50;;
62332;SDS011;48624;49.812;8.562;2022-07-19T06:56:11;7.18;;;3.92;;
62332;SDS011;48624;49.812;8.562;2022-07-19T06:58:36;10.48;;;4.20;;
62332;SDS011;48624;49.812;8.562;2022-07-19T07:01:01;9.95;;;4.55;;
62332;SDS011;48624;49.812;8.562;2022-07-19T07:03:28;4.88;;;3.63;;
62332;SDS011;48624;49.812;8.562;2022-07-19T07:05:53;7.55;;;3.60;;
62332;SDS011;48624;49.812;8.562;2022-07-19T07:08:19;7.88;;;3.83;;
62332;SDS011;48624;49.812;8.562;2022-07-19T07:10:44;5.53;;;3.65;;
62332;SDS011;48624;49.812;8.562;2022-07-19T07:13:10;7.03;;;3.25;;
62332;SDS011;48624;49.812;8.562;2022-07-19T07:15:35;14.18;;;4.05;;
62332;SDS011;48624;49.812;8.562;2022-07-19T07:18:03;6.15;;;3.88;;
62332;SDS011;48624;49.812;8.562;2022-07-19T07:20:28;6.13;;;3.90;;
62332;SDS011;48624;49.812;8.562;2022-07-19T07:22:55;10.27;;;3.58;;
62332;SDS011;48624;49.812;8.562;2022-07-19T07:25:20;7.80;;;3.67;;
62332;SDS011;48624;49.812;8.562;2022-07-19T07:27:46;8.25;;;4.18;;
62332;SDS011;48624;49.812;8.562;2022-07-19T07:30:11;7.53;;;3.72;;
62332;SDS011;48624;49.812;8.562;2022-07-19T07:32:36;5.00;;;2.88;;
62332;SDS011;48624;49.812;8.562;2022-07-19T07:35:02;6.68;;;3.50;;
62332;SDS011;48624;49.812;8.562;2022-07-19T07:37:28;8.48;;;3.30;;
62332;SDS011;48624;49.812;8.562;2022-07-19T07:39:53;6.28;;;3.58;;
62332;SDS011;48624;49.812;8.562;2022-07-19T07:42:19;6.38;;;3.10;;
62332;SDS011;48624;49.812;8.562;2022-07-19T07:44:44;7.90;;;3.58;;
62332;SDS011;48624;49.812;8.562;2022-07-19T07:47:10;7.50;;;3.50;;
62332;SDS011;48624;49.812;8.562;2022-07-19T07:49:36;6.90;;;3.15;;
62332;SDS011;48624;49.812;8.562;2022-07-19T07:52:02;9.38;;;3.78;;
62332;SDS011;48624;49.812;8.562;2022-07-19T07:54:28;10.48;;;3.55;;
62332;SDS011;48624;49.812;8.562;2022-07-19T07:56:54;8.68;;;3.10;;
62332;SDS011;48624;49.812;8.562;2022-07-19T07:59:19;7.95;;;3.15;;
62332;SDS011;48624;49.812;8.562;2022-07-19T08:01:44;12.90;;;3.65;;
62332;SDS011;48624;49.812;8.562;2022-07-19T08:04:10;9.63;;;3.47;;
62332;SDS011;48624;49.812;8.562;2022-07-19T08:06:35;7.13;;;2.88;;
62332;SDS011;48624;49.812;8.562;2022-07-19T08:09:02;7.88;;;3.38;;
62332;SDS011;48624;49.812;8.562;2022-07-19T08:11:28;7.43;;;3.10;;
62332;SDS011;48624;49.812;8.562;2022-07-19T08:13:54;7.43;;;3.50;;
62332;SDS011;48624;49.812;8.562;2022-07-19T08:16:19;12.10;;;3.63;;
62332;SDS011;48624;49.812;8.562;2022-07-19T08:18:44;6.35;;;2.97;;
62332;SDS011;48624;49.812;8.562;2022-07-19T08:21:10;11.02;;;7.00;;
62332;SDS011;48624;49.812;8.562;2022-07-19T08:23:35;5.20;;;2.65;;
62332;SDS011;48624;49.812;8.562;2022-07-19T08:26:01;5.10;;;2.63;;
62332;SDS011;48624;49.812;8.562;2022-07-19T08:28:27;3.60;;;2.63;;
62332;SDS011;48624;49.812;8.562;2022-07-19T08:30:52;8.23;;;2.20;;
62332;SDS011;48624;49.812;8.562;2022-07-19T08:33:18;4.15;;;2.88;;
62332;SDS011;48624;49.812;8.562;2022-07-19T08:35:43;6.63;;;2.92;;
62332;SDS011;48624;49.812;8.562;2022-07-19T08:38:09;5.85;;;2.10;;
62332;SDS011;48624;49.812;8.562;2022-07-19T08:40:34;7.13;;;3.05;;
62332;SDS011;48624;49.812;8.562;2022-07-19T08:43:02;6.97;;;2.92;;
62332;SDS011;48624;49.812;8.562;2022-07-19T08:45:29;6.80;;;3.03;;
62332;SDS011;48624;49.812;8.562;2022-07-19T08:47:55;6.90;;;2.63;;
62332;SDS011;48624;49.812;8.562;2022-07-19T08:50:22;9.25;;;2.58;;
62332;SDS011;48624;49.812;8.562;2022-07-19T08:52:51;9.77;;;3.05;;
62332;SDS011;48624;49.812;8.562;2022-07-19T08:55:17;5.28;;;2.50;;
62332;SDS011;48624;49.812;8.562;2022-07-19T08:57:42;9.82;;;3.20;;
62332;SDS011;48624;49.812;8.562;2022-07-19T09:00:29;4.20;;;2.40;;
62332;SDS011;48624;49.812;8.562;2022-07-19T09:02:58;4.65;;;2.72;;
62332;SDS011;48624;49.812;8.562;2022-07-19T09:05:25;7.57;;;2.55;;
62332;SDS011;48624;49.812;8.562;2022-07-19T09:10:31;5.60;;;2.80;;
62332;SDS011;48624;49.812;8.562;2022-07-19T09:15:42;5.93;;;2.33;;
62332;SDS011;48624;49.812;8.562;2022-07-19T09:18:17;8.15;;;2.50;;
62332;SDS011;48624;49.812;8.562;2022-07-19T09:20:54;8.45;;;3.10;;
62332;SDS011;48624;49.812;8.562;2022-07-19T09:23:24;4.15;;;2.20;;
62332;SDS011;48624;49.812;8.562;2022-07-19T09:25:51;9.07;;;2.50;;
62332;SDS011;48624;49.812;8.562;2022-07-19T09:28:18;6.97;;;2.40;;
62332;SDS011;48624;49.812;8.562;2022-07-19T09:30:46;4.18;;;2.10;;
62332;SDS011;48624;49.812;8.562;2022-07-19T09:33:19;7.38;;;2.90;;
62332;SDS011;48624;49.812;8.562;2022-07-19T09:35:53;6.78;;;1.83;;
62332;SDS011;48624;49.812;8.562;2022-07-19T09:38:27;9.95;;;2.13;;
62332;SDS011;48624;49.812;8.562;2022-07-19T09:41:12;6.82;;;2.15;;
62332;SDS011;48624;49.812;8.562;2022-07-19T09:43:50;4.00;;;2.50;;
62332;SDS011;48624;49.812;8.562;2022-07-19T09:46:29;3.72;;;2.05;;
62332;SDS011;48624;49.812;8.562;2022-07-19T09:51:35;2.63;;;2.13;;
62332;SDS011;48624;49.812;8.562;2022-07-19T09:54:03;4.97;;;2.25;;
62332;SDS011;48624;49.812;8.562;2022-07-19T09:56:30;5.93;;;2.20;;
62332;SDS011;48624;49.812;8.562;2022-07-19T09:58:57;7.05;;;2.00;;
62332;SDS011;48624;49.812;8.562;2022-07-19T10:01:24;5.97;;;1.83;;
62332;SDS011;48624;49.812;8.562;2022-07-19T10:03:54;5.97;;;1.92;;
62332;SDS011;48624;49.812;8.562;2022-07-19T10:06:23;7.28;;;1.88;;
62332;SDS011;48624;49.812;8.562;2022-07-19T10:08:50;3.63;;;2.17;;
62332;SDS011;48624;49.812;8.562;2022-07-19T10:11:16;2.17;;;1.80;;
62332;SDS011;48624;49.812;8.562;2022-07-19T10:13:42;4.13;;;1.52;;
62332;SDS011;48624;49.812;8.562;2022-07-19T10:16:10;7.07;;;2.33;;
62332;SDS011;48624;49.812;8.562;2022-07-19T10:18:44;3.05;;;1.77;;
62332;SDS011;48624;49.812;8.562;2022-07-19T10:21:16;2.47;;;1.73;;
62332;SDS011;48624;49.812;8.562;2022-07-19T10:23:52;3.15;;;1.85;;
62332;SDS011;48624;49.812;8.562;2022-07-19T10:26:37;2.70;;;2.05;;
62332;SDS011;48624;49.812;8.562;2022-07-19T10:31:33;2.17;;;1.52;;
62332;SDS011;48624;49.812;8.562;2022-07-19T10:34:01;5.60;;;1.90;;
62332;SDS011;48624;49.812;8.562;2022-07-19T10:47:20;3.70;;;1.85;;
62332;SDS011;48624;49.812;8.562;2022-07-19T10:50:08;3.00;;;2.10;;
62332;SDS011;48624;49.812;8.562;2022-07-19T10:52:38;2.88;;;1.98;;
62332;SDS011;48624;49.812;8.562;2022-07-19T10:57:50;2.58;;;1.80;;
62332;SDS011;48624;49.812;8.562;2022-07-19T11:00:27;2.13;;;1.52;;
62332;SDS011;48624;49.812;8.562;2022-07-19T11:03:26;5.07;;;1.73;;
62332;SDS011;48624;49.812;8.562;2022-07-19T11:05:58;5.78;;;1.80;;
62332;SDS011;48624;49.812;8.562;2022-07-19T11:08:39;2.10;;;1.63;;
62332;SDS011;48624;49.812;8.562;2022-07-19T11:11:13;4.38;;;1.80;;
62332;SDS011;48624;49.812;8.562;2022-07-19T11:13:42;3.53;;;2.30;;
62332;SDS011;48624;49.812;8.562;2022-07-19T11:16:10;2.47;;;1.77;;
62332;SDS011;48624;49.812;8.562;2022-07-19T11:18:36;3.25;;;2.20;;
62332;SDS011;48624;49.812;8.562;2022-07-19T11:21:02;5.90;;;1.90;;
62332;SDS011;48624;49.812;8.562;2022-07-19T11:23:39;3.38;;;1.77;;
62332;SDS011;48624;49.812;8.562;2022-07-19T11:26:12;6.47;;;1.80;;
62332;SDS011;48624;49.812;8.562;2022-07-19T11:28:40;2.72;;;1.88;;
62332;SDS011;48624;49.812;8.562;2022-07-19T11:31:10;2.38;;;1.85;;
62332;SDS011;48624;49.812;8.562;2022-07-19T11:33:37;4.18;;;1.60;;
62332;SDS011;48624;49.812;8.562;2022-07-19T11:36:05;3.13;;;1.58;;
62332;SDS011;48624;49.812;8.562;2022-07-19T11:41:18;1.90;;;1.65;;
62332;SDS011;48624;49.812;8.562;2022-07-19T11:43:56;3.15;;;1.67;;
62332;SDS011;48624;49.812;8.562;2022-07-19T11:46:29;3.15;;;1.98;;
62332;SDS011;48624;49.812;8.562;2022-07-19T11:49:06;2.42;;;1.42;;
62332;SDS011;48624;49.812;8.562;2022-07-19T11:51:33;5.90;;;1.98;;
62332;SDS011;48624;49.812;8.562;2022-07-19T11:53:59;3.90;;;2.20;;
62332;SDS011;48624;49.812;8.562;2022-07-19T11:56:30;3.22;;;1.90;;
62332;SDS011;48624;49.812;8.562;2022-07-19T11:58:58;2.20;;;1.75;;
62332;SDS011;48624;49.812;8.562;2022-07-19T12:01:35;3.05;;;1.67;;
62332;SDS011;48624;49.812;8.562;2022-07-19T12:04:07;3.45;;;1.48;;
62332;SDS011;48624;49.812;8.562;2022-07-19T12:06:47;1.60;;;1.50;;
62332;SDS011;48624;49.812;8.562;2022-07-19T12:09:16;4.10;;;1.80;;
62332;SDS011;48624;49.812;8.562;2022-07-19T12:11:44;2.55;;;1.40;;
62332;SDS011;48624;49.812;8.562;2022-07-19T12:19:34;3.42;;;1.75;;
62332;SDS011;48624;49.812;8.562;2022-07-19T12:22:00;3.65;;;2.00;;
62332;SDS011;48624;49.812;8.562;2022-07-19T12:24:26;4.65;;;2.08;;
62332;SDS011;48624;49.812;8.562;2022-07-19T12:29:34;2.28;;;2.08;;
62332;SDS011;48624;49.812;8.562;2022-07-19T12:32:07;2.50;;;1.80;;
62332;SDS011;48624;49.812;8.562;2022-07-19T12:37:24;6.53;;;1.83;;
62332;SDS011;48624;49.812;8.562;2022-07-19T12:42:24;2.70;;;2.20;;
62332;SDS011;48624;49.812;8.562;2022-07-19T12:44:49;2.25;;;1.67;;
62332;SDS011;48624;49.812;8.562;2022-07-19T12:47:16;5.18;;;2.05;;
62332;SDS011;48624;49.812;8.562;2022-07-19T12:49:51;7.05;;;3.28;;
62332;SDS011;48624;49.812;8.562;2022-07-19T12:52:20;3.83;;;1.83;;
62332;SDS011;48624;49.812;8.562;2022-07-19T12:54:45;5.38;;;2.17;;
62332;SDS011;48624;49.812;8.562;2022-07-19T12:57:10;3.70;;;1.90;;
62332;SDS011;48624;49.812;8.562;2022-07-19T12:59:36;2.75;;;1.52;;
62332;SDS011;48624;49.812;8.562;2022-07-19T13:02:04;3.88;;;1.65;;
62332;SDS011;48624;49.812;8.562;2022-07-19T13:04:29;3.97;;;1.98;;
62332;SDS011;48624;49.812;8.562;2022-07-19T13:06:55;2.00;;;1.73;;
62332;SDS011;48624;49.812;8.562;2022-07-19T13:09:20;2.25;;;1.38;;
62332;SDS011;48624;49.812;8.562;2022-07-19T13:11:46;3.70;;;1.95;;
62332;SDS011;48624;49.812;8.562;2022-07-19T13:14:11;2.83;;;1.52;;
62332;SDS011;48624;49.812;8.562;2022-07-19T13:16:37;4.88;;;1.65;;
62332;SDS011;48624;49.812;8.562;2022-07-19T13:19:03;2.88;;;1.70;;
62332;SDS011;48624;49.812;8.562;2022-07-19T13:21:29;7.63;;;2.30;;
62332;SDS011;48624;49.812;8.562;2022-07-19T13:23:54;5.25;;;1.98;;
62332;SDS011;48624;49.812;8.562;2022-07-19T13:26:20;3.95;;;2.03;;
62332;SDS011;48624;49.812;8.562;2022-07-19T13:28:45;3.67;;;2.13;;
62332;SDS011;48624;49.812;8.562;2022-07-19T13:31:10;3.60;;;1.70;;
62332;SDS011;48624;49.812;8.562;2022-07-19T13:33:36;4.57;;;1.67;;
62332;SDS011;48624;49.812;8.562;2022-07-19T13:36:01;4.63;;;2.10;;
62332;SDS011;48624;49.812;8.562;2022-07-19T13:38:26;3.58;;;2.08;;
62332;SDS011;48624;49.812;8.562;2022-07-19T13:40:52;2.90;;;1.88;;
62332;SDS011;48624;49.812;8.562;2022-07-19T13:43:17;3.97;;;2.10;;
62332;SDS011;48624;49.812;8.562;2022-07-19T13:45:43;3.10;;;1.95;;
62332;SDS011;48624;49.812;8.562;2022-07-19T13:48:08;2.33;;;1.50;;
62332;SDS011;48624;49.812;8.562;2022-07-19T13:50:33;4.15;;;2.10;;
62332;SDS011;48624;49.812;8.562;2022-07-19T13:52:59;2.92;;;2.00;;
62332;SDS011;48624;49.812;8.562;2022-07-19T13:55:26;4.03;;;1.80;;
62332;SDS011;48624;49.812;8.562;2022-07-19T13:57:52;5.28;;;2.70;;
62332;SDS011;48624;49.812;8.562;2022-07-19T14:00:17;4.18;;;1.85;;
62332;SDS011;48624;49.812;8.562;2022-07-19T14:02:43;11.00;;;2.47;;
62332;SDS011;48624;49.812;8.562;2022-07-19T14:05:09;4.82;;;1.92;;
62332;SDS011;48624;49.812;8.562;2022-07-19T14:07:35;4.95;;;1.83;;
62332;SDS011;48624;49.812;8.562;2022-07-19T14:10:00;2.75;;;1.95;;
62332;SDS011;48624;49.812;8.562;2022-07-19T14:12:26;2.72;;;1.92;;
62332;SDS011;48624;49.812;8.562;2022-07-19T14:14:51;6.72;;;2.10;;
62332;SDS011;48624;49.812;8.562;2022-07-19T14:17:16;4.35;;;1.90;;
62332;SDS011;48624;49.812;8.562;2022-07-19T14:19:42;5.53;;;1.98;;
62332;SDS011;48624;49.812;8.562;2022-07-19T14:22:08;3.80;;;1.80;;
62332;SDS011;48624;49.812;8.562;2022-07-19T14:24:34;2.25;;;2.05;;
62332;SDS011;48624;49.812;8.562;2022-07-19T14:27:00;4.00;;;1.98;;
62332;SDS011;48624;49.812;8.562;2022-07-19T14:29:26;3.10;;;1.95;;
62332;SDS011;48624;49.812;8.562;2022-07-19T14:31:51;3.33;;;1.52;;
62332;SDS011;48624;49.812;8.562;2022-07-19T14:34:17;4.40;;;2.00;;
62332;SDS011;48624;49.812;8.562;2022-07-19T14:36:42;1.80;;;1.70;;
62332;SDS011;48624;49.812;8.562;2022-07-19T14:39:08;5.90;;;2.30;;
62332;SDS011;48624;49.812;8.562;2022-07-19T14:41:33;3.40;;;1.77;;
62332;SDS011;48624;49.812;8.562;2022-07-19T14:43:59;5.00;;;2.17;;
62332;SDS011;48624;49.812;8.562;2022-07-19T14:46:24;3.95;;;2.20;;
62332;SDS011;48624;49.812;8.562;2022-07-19T14:48:49;4.45;;;1.88;;
62332;SDS011;48624;49.812;8.562;2022-07-19T14:51:15;17.08;;;2.70;;
62332;SDS011;48624;49.812;8.562;2022-07-19T14:53:40;4.90;;;1.25;;
62332;SDS011;48624;49.812;8.562;2022-07-19T14:56:06;4.25;;;1.73;;
62332;SDS011;48624;49.812;8.562;2022-07-19T14:58:31;3.88;;;1.48;;
62332;SDS011;48624;49.812;8.562;2022-07-19T15:00:56;4.88;;;1.67;;
62332;SDS011;48624;49.812;8.562;2022-07-19T15:03:22;2.58;;;1.80;;
62332;SDS011;48624;49.812;8.562;2022-07-19T15:05:47;4.47;;;1.92;;
62332;SDS011;48624;49.812;8.562;2022-07-19T15:08:12;3.40;;;1.95;;
62332;SDS011;48624;49.812;8.562;2022-07-19T15:10:38;2.67;;;2.03;;
62332;SDS011;48624;49.812;8.562;2022-07-19T15:13:04;2.33;;;1.58;;
62332;SDS011;48624;49.812;8.562;2022-07-19T15:15:29;2.95;;;1.88;;
62332;SDS011;48624;49.812;8.562;2022-07-19T15:17:55;4.07;;;1.90;;
62332;SDS011;48624;49.812;8.562;2022-07-19T15:20:20;3.60;;;1.77;;
62332;SDS011;48624;49.812;8.562;2022-07-19T15:22:47;3.78;;;1.67;;